sensor_id;sensor_type;location;lat;lon;timestamp;temperature;humidity
46562;DHT22;32289;42.688;23.330;2023-03-31T00:01:51;8.30;90.80
46562;DHT22;32289;42.688;23.330;2023-03-31T00:05:36;8.20;90.80
46562;DHT22;32289;42.688;23.330;2023-03-31T00:09:16;8.10;91.40
46562;DHT22;32289;42.688;23.330;2023-03-31T00:13:01;8.20;91.40
46562;DHT22;32289;42.688;23.330;2023-03-31T00:16:42;8.10;91.40
46562;DHT22;32289;42.688;23.330;2023-03-31T00:20:23;8.10;91.20
46562;DHT22;32289;42.688;23.330;2023-03-31T00:24:09;8.10;91.80
46562;DHT22;32289;42.688;23.330;2023-03-31T00:27:50;8.10;91.50
46562;DHT22;32289;42.688;23.330;2023-03-31T00:31:32;8.20;90.40
46562;DHT22;32289;42.688;23.330;2023-03-31T00:35:15;8.30;90.80
46562;DHT22;32289;42.688;23.330;2023-03-31T00:38:58;8.30;91.10
46562;DHT22;32289;42.688;23.330;2023-03-31T00:42:40;8.10;90.90
46562;DHT22;32289;42.688;23.330;2023-03-31T00:46:33;8.40;91.00
46562;DHT22;32289;42.688;23.330;2023-03-31T00:50:24;8.40;91.70
46562;DHT22;32289;42.688;23.330;2023-03-31T00:54:08;8.50;91.60
46562;DHT22;32289;42.688;23.330;2023-03-31T00:57:51;8.60;91.80
46562;DHT22;32289;42.688;23.330;2023-03-31T01:01:33;8.50;91.90
46562;DHT22;32289;42.688;23.330;2023-03-31T01:05:15;8.60;91.40
46562;DHT22;32289;42.688;23.330;2023-03-31T01:08:56;8.70;90.70
46562;DHT22;32289;42.688;23.330;2023-03-31T01:12:40;8.70;91.80
46562;DHT22;32289;42.688;23.330;2023-03-31T01:16:21;8.60;92.40
46562;DHT22;32289;42.688;23.330;2023-03-31T01:40:37;8.70;93.90
46562;DHT22;32289;42.688;23.330;2023-03-31T01:44:54;8.70;92.30
46562;DHT22;32289;42.688;23.330;2023-03-31T01:56:36;8.90;87.90
46562;DHT22;32289;42.688;23.330;2023-03-31T02:00:30;8.90;91.00
46562;DHT22;32289;42.688;23.330;2023-03-31T02:04:18;9.00;90.90
46562;DHT22;32289;42.688;23.330;2023-03-31T02:08:10;9.00;87.50
46562;DHT22;32289;42.688;23.330;2023-03-31T02:11:54;9.10;89.10
46562;DHT22;32289;42.688;23.330;2023-03-31T02:15:40;9.20;87.50
46562;DHT22;32289;42.688;23.330;2023-03-31T02:19:23;9.10;86.50
46562;DHT22;32289;42.688;23.330;2023-03-31T02:23:04;9.00;91.10
46562;DHT22;32289;42.688;23.330;2023-03-31T02:30:45;8.90;93.40
46562;DHT22;32289;42.688;23.330;2023-03-31T02:34:28;8.90;93.70
46562;DHT22;32289;42.688;23.330;2023-03-31T02:38:09;8.80;98.40
46562;DHT22;32289;42.688;23.330;2023-03-31T02:41:51;8.70;99.90
46562;DHT22;32289;42.688;23.330;2023-03-31T02:45:46;8.50;99.90
46562;DHT22;32289;42.688;23.330;2023-03-31T02:49:29;8.30;99.90
46562;DHT22;32289;42.688;23.330;2023-03-31T03:10:05;8.00;99.90
46562;DHT22;32289;42.688;23.330;2023-03-31T03:17:42;7.80;99.90
46562;DHT22;32289;42.688;23.330;2023-03-31T03:21:24;7.70;99.90
46562;DHT22;32289;42.688;23.330;2023-03-31T03:25:10;7.60;99.90
46562;DHT22;32289;42.688;23.330;2023-03-31T03:28:52;7.70;99.90
46562;DHT22;32289;42.688;23.330;2023-03-31T03:32:33;7.80;99.90
46562;DHT22;32289;42.688;23.330;2023-03-31T03:36:14;7.70;99.90
46562;DHT22;32289;42.688;23.330;2023-03-31T03:39:56;7.80;99.90
46562;DHT22;32289;42.688;23.330;2023-03-31T03:43:37;7.80;99.90
46562;DHT22;32289;42.688;23.330;2023-03-31T03:47:18;7.70;99.90
46562;DHT22;32289;42.688;23.330;2023-03-31T03:51:00;7.70;99.90
46562;DHT22;32289;42.688;23.330;2023-03-31T03:54:41;7.60;99.90
46562;DHT22;32289;42.688;23.330;2023-03-31T03:58:22;7.70;99.90
46562;DHT22;32289;42.688;23.330;2023-03-31T04:02:02;7.90;99.90
46562;DHT22;32289;42.688;23.330;2023-03-31T04:05:43;8.10;99.90
46562;DHT22;32289;42.688;23.330;2023-03-31T04:09:24;8.30;99.90
46562;DHT22;32289;42.688;23.330;2023-03-31T04:13:04;8.40;99.90
46562;DHT22;32289;42.688;23.330;2023-03-31T04:16:46;8.40;99.90
46562;DHT22;32289;42.688;23.330;2023-03-31T04:20:27;8.40;99.90
46562;DHT22;32289;42.688;23.330;2023-03-31T04:24:11;8.30;99.90
46562;DHT22;32289;42.688;23.330;2023-03-31T04:27:55;8.50;99.90
46562;DHT22;32289;42.688;23.330;2023-03-31T04:31:36;8.50;99.90
46562;DHT22;32289;42.688;23.330;2023-03-31T04:35:19;8.50;99.90
46562;DHT22;32289;42.688;23.330;2023-03-31T04:39:00;8.40;99.90
46562;DHT22;32289;42.688;23.330;2023-03-31T04:42:44;8.60;99.90
46562;DHT22;32289;42.688;23.330;2023-03-31T04:46:25;8.50;99.90
46562;DHT22;32289;42.688;23.330;2023-03-31T04:50:07;8.60;99.90
46562;DHT22;32289;42.688;23.330;2023-03-31T04:53:49;8.80;99.90
46562;DHT22;32289;42.688;23.330;2023-03-31T04:57:30;9.00;99.90
46562;DHT22;32289;42.688;23.330;2023-03-31T05:01:11;8.90;99.90
46562;DHT22;32289;42.688;23.330;2023-03-31T05:04:57;8.80;99.90
46562;DHT22;32289;42.688;23.330;2023-03-31T05:08:38;8.70;99.90
46562;DHT22;32289;42.688;23.330;2023-03-31T05:12:18;8.80;99.90
46562;DHT22;32289;42.688;23.330;2023-03-31T05:16:08;8.70;99.90
46562;DHT22;32289;42.688;23.330;2023-03-31T05:19:49;8.60;99.90
46562;DHT22;32289;42.688;23.330;2023-03-31T05:23:29;8.60;99.90
46562;DHT22;32289;42.688;23.330;2023-03-31T05:27:11;8.60;99.90
46562;DHT22;32289;42.688;23.330;2023-03-31T05:30:52;8.70;99.90
46562;DHT22;32289;42.688;23.330;2023-03-31T05:34:33;9.10;99.90
46562;DHT22;32289;42.688;23.330;2023-03-31T05:38:14;9.30;99.90
46562;DHT22;32289;42.688;23.330;2023-03-31T05:41:55;9.00;99.90
46562;DHT22;32289;42.688;23.330;2023-03-31T05:45:36;9.30;99.90
46562;DHT22;32289;42.688;23.330;2023-03-31T05:49:16;9.20;99.90
46562;DHT22;32289;42.688;23.330;2023-03-31T05:52:57;9.40;99.90
46562;DHT22;32289;42.688;23.330;2023-03-31T05:56:39;9.80;99.90
46562;DHT22;32289;42.688;23.330;2023-03-31T06:00:20;10.00;99.90
46562;DHT22;32289;42.688;23.330;2023-03-31T06:04:00;9.90;99.90
46562;DHT22;32289;42.688;23.330;2023-03-31T06:07:41;10.00;99.90
46562;DHT22;32289;42.688;23.330;2023-03-31T06:11:22;9.70;99.90
46562;DHT22;32289;42.688;23.330;2023-03-31T06:15:03;9.70;99.90
46562;DHT22;32289;42.688;23.330;2023-03-31T06:18:44;9.90;99.90
46562;DHT22;32289;42.688;23.330;2023-03-31T06:22:25;9.90;99.90
46562;DHT22;32289;42.688;23.330;2023-03-31T06:26:07;10.80;99.90
46562;DHT22;32289;42.688;23.330;2023-03-31T06:29:48;11.00;99.90
46562;DHT22;32289;42.688;23.330;2023-03-31T06:33:30;11.20;99.90
46562;DHT22;32289;42.688;23.330;2023-03-31T06:37:11;11.10;99.90
46562;DHT22;32289;42.688;23.330;2023-03-31T06:40:51;13.00;98.10
46562;DHT22;32289;42.688;23.330;2023-03-31T06:44:32;13.60;94.80
46562;DHT22;32289;42.688;23.330;2023-03-31T06:48:13;15.40;85.90
46562;DHT22;32289;42.688;23.330;2023-03-31T06:51:54;17.10;77.00
46562;DHT22;32289;42.688;23.330;2023-03-31T06:55:35;16.20;77.50
46562;DHT22;32289;42.688;23.330;2023-03-31T06:59:16;14.10;80.60
46562;DHT22;32289;42.688;23.330;2023-03-31T07:02:57;13.70;75.50
46562;DHT22;32289;42.688;23.330;2023-03-31T07:06:37;14.60;78.70
46562;DHT22;32289;42.688;23.330;2023-03-31T07:10:18;14.80;70.40
46562;DHT22;32289;42.688;23.330;2023-03-31T07:13:59;15.30;72.30
46562;DHT22;32289;42.688;23.330;2023-03-31T07:17:40;17.50;62.10
46562;DHT22;32289;42.688;23.330;2023-03-31T07:21:21;20.20;56.50
46562;DHT22;32289;42.688;23.330;2023-03-31T07:25:02;20.60;53.20
46562;DHT22;32289;42.688;23.330;2023-03-31T07:28:42;19.10;54.30
46562;DHT22;32289;42.688;23.330;2023-03-31T07:32:23;18.90;53.50
46562;DHT22;32289;42.688;23.330;2023-03-31T07:36:05;19.00;54.30
46562;DHT22;32289;42.688;23.330;2023-03-31T07:39:45;18.40;56.30
46562;DHT22;32289;42.688;23.330;2023-03-31T07:43:26;17.90;57.50
46562;DHT22;32289;42.688;23.330;2023-03-31T07:47:07;17.70;56.70
46562;DHT22;32289;42.688;23.330;2023-03-31T07:50:48;18.90;55.80
46562;DHT22;32289;42.688;23.330;2023-03-31T07:54:30;18.80;54.40
46562;DHT22;32289;42.688;23.330;2023-03-31T07:58:10;19.50;53.20
46562;DHT22;32289;42.688;23.330;2023-03-31T08:01:51;19.30;52.50
46562;DHT22;32289;42.688;23.330;2023-03-31T08:05:32;20.40;51.40
46562;DHT22;32289;42.688;23.330;2023-03-31T08:09:12;20.30;50.30
46562;DHT22;32289;42.688;23.330;2023-03-31T08:12:53;19.30;51.70
46562;DHT22;32289;42.688;23.330;2023-03-31T08:16:35;18.00;53.90
46562;DHT22;32289;42.688;23.330;2023-03-31T08:20:15;17.00;56.40
46562;DHT22;32289;42.688;23.330;2023-03-31T08:23:56;16.30;58.50
46562;DHT22;32289;42.688;23.330;2023-03-31T08:27:38;16.00;59.20
46562;DHT22;32289;42.688;23.330;2023-03-31T08:31:20;18.60;54.80
46562;DHT22;32289;42.688;23.330;2023-03-31T08:35:03;19.90;51.30
46562;DHT22;32289;42.688;23.330;2023-03-31T08:38:44;20.60;50.40
46562;DHT22;32289;42.688;23.330;2023-03-31T08:42:42;20.30;50.10
46562;DHT22;32289;42.688;23.330;2023-03-31T08:46:27;21.40;48.50
46562;DHT22;32289;42.688;23.330;2023-03-31T08:50:15;21.00;49.00
46562;DHT22;32289;42.688;23.330;2023-03-31T08:54:16;20.00;49.50
46562;DHT22;32289;42.688;23.330;2023-03-31T09:06:32;17.60;56.20
46562;DHT22;32289;42.688;23.330;2023-03-31T09:18:02;19.30;52.20
46562;DHT22;32289;42.688;23.330;2023-03-31T09:21:52;18.80;51.40
46562;DHT22;32289;42.688;23.330;2023-03-31T09:25:37;19.50;51.80
46562;DHT22;32289;42.688;23.330;2023-03-31T09:29:42;19.20;51.40
46562;DHT22;32289;42.688;23.330;2023-03-31T09:33:26;19.30;50.70
46562;DHT22;32289;42.688;23.330;2023-03-31T09:37:12;19.50;51.20
46562;DHT22;32289;42.688;23.330;2023-03-31T09:40:53;19.00;51.60
46562;DHT22;32289;42.688;23.330;2023-03-31T09:48:19;18.10;52.90
46562;DHT22;32289;42.688;23.330;2023-03-31T09:52:05;19.30;51.60
46562;DHT22;32289;42.688;23.330;2023-03-31T09:55:51;20.30;49.90
46562;DHT22;32289;42.688;23.330;2023-03-31T09:59:34;20.60;48.50
46562;DHT22;32289;42.688;23.330;2023-03-31T10:03:14;20.50;49.10
46562;DHT22;32289;42.688;23.330;2023-03-31T10:06:58;19.90;50.40
46562;DHT22;32289;42.688;23.330;2023-03-31T10:10:44;19.50;50.50
46562;DHT22;32289;42.688;23.330;2023-03-31T10:14:45;18.60;51.30
46562;DHT22;32289;42.688;23.330;2023-03-31T10:18:40;18.50;51.50
46562;DHT22;32289;42.688;23.330;2023-03-31T10:26:03;19.90;50.20
46562;DHT22;32289;42.688;23.330;2023-03-31T10:29:44;19.70;49.90
46562;DHT22;32289;42.688;23.330;2023-03-31T10:33:26;19.30;50.80
46562;DHT22;32289;42.688;23.330;2023-03-31T10:37:17;19.40;50.50
46562;DHT22;32289;42.688;23.330;2023-03-31T10:40:59;19.30;51.20
46562;DHT22;32289;42.688;23.330;2023-03-31T10:44:40;18.80;51.40
46562;DHT22;32289;42.688;23.330;2023-03-31T10:52:22;18.10;54.10
46562;DHT22;32289;42.688;23.330;2023-03-31T11:00:15;18.40;53.70
46562;DHT22;32289;42.688;23.330;2023-03-31T11:12:33;18.50;54.40
46562;DHT22;32289;42.688;23.330;2023-03-31T11:44:13;19.10;53.10
46562;DHT22;32289;42.688;23.330;2023-03-31T11:47:59;18.30;52.70
46562;DHT22;32289;42.688;23.330;2023-03-31T11:55:29;18.00;53.70
46562;DHT22;32289;42.688;23.330;2023-03-31T11:59:15;17.70;54.40
46562;DHT22;32289;42.688;23.330;2023-03-31T12:03:15;18.00;54.40
46562;DHT22;32289;42.688;23.330;2023-03-31T12:11:50;18.20;53.90
46562;DHT22;32289;42.688;23.330;2023-03-31T12:15:38;18.20;54.20
46562;DHT22;32289;42.688;23.330;2023-03-31T12:23:14;18.20;54.10
46562;DHT22;32289;42.688;23.330;2023-03-31T12:27:18;18.30;53.60
46562;DHT22;32289;42.688;23.330;2023-03-31T12:31:02;17.80;53.90
46562;DHT22;32289;42.688;23.330;2023-03-31T12:34:53;18.20;53.80
46562;DHT22;32289;42.688;23.330;2023-03-31T12:58:41;19.00;52.80
46562;DHT22;32289;42.688;23.330;2023-03-31T13:02:24;18.70;53.60
46562;DHT22;32289;42.688;23.330;2023-03-31T13:06:07;19.00;52.50
46562;DHT22;32289;42.688;23.330;2023-03-31T13:09:49;19.00;51.90
46562;DHT22;32289;42.688;23.330;2023-03-31T13:13:32;19.20;51.80
46562;DHT22;32289;42.688;23.330;2023-03-31T13:17:36;19.10;51.60
46562;DHT22;32289;42.688;23.330;2023-03-31T13:21:18;19.40;51.60
46562;DHT22;32289;42.688;23.330;2023-03-31T13:29:20;19.30;51.90
46562;DHT22;32289;42.688;23.330;2023-03-31T14:09:13;18.40;53.70
46562;DHT22;32289;42.688;23.330;2023-03-31T14:13:06;18.50;53.40
46562;DHT22;32289;42.688;23.330;2023-03-31T14:16:51;18.80;53.30
46562;DHT22;32289;42.688;23.330;2023-03-31T14:20:56;18.70;53.50
46562;DHT22;32289;42.688;23.330;2023-03-31T14:25:06;18.60;53.30
46562;DHT22;32289;42.688;23.330;2023-03-31T14:29:18;19.00;53.10
46562;DHT22;32289;42.688;23.330;2023-03-31T14:33:47;18.80;52.80
46562;DHT22;32289;42.688;23.330;2023-03-31T14:37:13;18.60;53.60
46562;DHT22;32289;42.688;23.330;2023-03-31T14:40:58;18.40;53.80
46562;DHT22;32289;42.688;23.330;2023-03-31T14:44:41;18.50;53.90
46562;DHT22;32289;42.688;23.330;2023-03-31T14:48:27;18.50;53.90
46562;DHT22;32289;42.688;23.330;2023-03-31T14:52:20;18.50;54.50
46562;DHT22;32289;42.688;23.330;2023-03-31T14:56:07;18.40;53.90
46562;DHT22;32289;42.688;23.330;2023-03-31T14:59:50;18.30;54.30
46562;DHT22;32289;42.688;23.330;2023-03-31T15:03:39;18.00;54.90
46562;DHT22;32289;42.688;23.330;2023-03-31T15:07:23;17.90;55.00
46562;DHT22;32289;42.688;23.330;2023-03-31T15:11:11;17.90;56.00
46562;DHT22;32289;42.688;23.330;2023-03-31T15:15:00;18.00;55.40
46562;DHT22;32289;42.688;23.330;2023-03-31T15:18:43;17.80;55.50
46562;DHT22;32289;42.688;23.330;2023-03-31T15:22:26;17.50;56.40
46562;DHT22;32289;42.688;23.330;2023-03-31T15:26:09;17.30;57.00
46562;DHT22;32289;42.688;23.330;2023-03-31T15:29:55;17.40;57.60
46562;DHT22;32289;42.688;23.330;2023-03-31T15:33:38;17.20;57.10
46562;DHT22;32289;42.688;23.330;2023-03-31T15:37:23;17.10;57.00
46562;DHT22;32289;42.688;23.330;2023-03-31T15:41:14;17.00;57.20
46562;DHT22;32289;42.688;23.330;2023-03-31T15:49:23;17.20;57.50
46562;DHT22;32289;42.688;23.330;2023-03-31T15:54:02;17.20;56.80
46562;DHT22;32289;42.688;23.330;2023-03-31T15:57:34;17.20;57.10
46562;DHT22;32289;42.688;23.330;2023-03-31T16:01:15;17.10;57.00
46562;DHT22;32289;42.688;23.330;2023-03-31T16:04:58;16.90;57.60
46562;DHT22;32289;42.688;23.330;2023-03-31T16:08:43;16.80;57.40
46562;DHT22;32289;42.688;23.330;2023-03-31T16:13:02;16.80;57.80
46562;DHT22;32289;42.688;23.330;2023-03-31T16:16:49;16.70;58.00
46562;DHT22;32289;42.688;23.330;2023-03-31T16:20:34;16.60;58.50
46562;DHT22;32289;42.688;23.330;2023-03-31T16:24:20;16.40;58.40
46562;DHT22;32289;42.688;23.330;2023-03-31T16:28:01;16.40;58.90
46562;DHT22;32289;42.688;23.330;2023-03-31T16:31:43;16.30;59.10
46562;DHT22;32289;42.688;23.330;2023-03-31T16:35:32;16.10;59.40
46562;DHT22;32289;42.688;23.330;2023-03-31T16:39:13;16.00;59.70
46562;DHT22;32289;42.688;23.330;2023-03-31T16:43:21;15.90;60.00
46562;DHT22;32289;42.688;23.330;2023-03-31T16:47:02;15.90;60.60
46562;DHT22;32289;42.688;23.330;2023-03-31T16:50:48;15.80;61.80
46562;DHT22;32289;42.688;23.330;2023-03-31T16:54:30;15.70;62.50
46562;DHT22;32289;42.688;23.330;2023-03-31T16:58:11;15.60;62.60
46562;DHT22;32289;42.688;23.330;2023-03-31T17:01:52;15.60;63.00
46562;DHT22;32289;42.688;23.330;2023-03-31T17:05:40;15.40;62.80
46562;DHT22;32289;42.688;23.330;2023-03-31T17:09:21;15.30;64.10
46562;DHT22;32289;42.688;23.330;2023-03-31T17:13:02;15.10;64.50
46562;DHT22;32289;42.688;23.330;2023-03-31T17:16:43;15.10;64.70
46562;DHT22;32289;42.688;23.330;2023-03-31T17:20:24;15.10;65.00
46562;DHT22;32289;42.688;23.330;2023-03-31T17:24:06;15.10;65.40
46562;DHT22;32289;42.688;23.330;2023-03-31T17:27:47;15.00;65.80
46562;DHT22;32289;42.688;23.330;2023-03-31T17:31:28;14.90;66.10
46562;DHT22;32289;42.688;23.330;2023-03-31T17:35:10;14.60;65.90
46562;DHT22;32289;42.688;23.330;2023-03-31T17:38:51;14.60;66.20
46562;DHT22;32289;42.688;23.330;2023-03-31T17:42:32;14.50;67.50
46562;DHT22;32289;42.688;23.330;2023-03-31T17:46:13;14.50;67.40
46562;DHT22;32289;42.688;23.330;2023-03-31T17:49:54;14.30;66.90
46562;DHT22;32289;42.688;23.330;2023-03-31T17:53:38;14.20;67.50
46562;DHT22;32289;42.688;23.330;2023-03-31T17:57:19;14.20;68.70
46562;DHT22;32289;42.688;23.330;2023-03-31T18:01:03;14.20;69.00
46562;DHT22;32289;42.688;23.330;2023-03-31T18:04:45;14.10;69.30
46562;DHT22;32289;42.688;23.330;2023-03-31T18:08:26;14.10;69.20
46562;DHT22;32289;42.688;23.330;2023-03-31T18:12:07;14.20;69.50
46562;DHT22;32289;42.688;23.330;2023-03-31T18:15:49;14.20;69.20
46562;DHT22;32289;42.688;23.330;2023-03-31T18:19:32;14.10;69.20
46562;DHT22;32289;42.688;23.330;2023-03-31T18:23:12;14.10;69.80
46562;DHT22;32289;42.688;23.330;2023-03-31T18:26:54;14.00;70.10
46562;DHT22;32289;42.688;23.330;2023-03-31T18:30:36;13.90;70.40
46562;DHT22;32289;42.688;23.330;2023-03-31T18:34:17;13.90;70.50
46562;DHT22;32289;42.688;23.330;2023-03-31T18:37:58;13.80;72.70
46562;DHT22;32289;42.688;23.330;2023-03-31T18:41:43;13.60;73.60
46562;DHT22;32289;42.688;23.330;2023-03-31T18:45:24;13.60;74.10
46562;DHT22;32289;42.688;23.330;2023-03-31T18:49:07;13.40;74.70
46562;DHT22;32289;42.688;23.330;2023-03-31T18:52:48;13.40;75.10
46562;DHT22;32289;42.688;23.330;2023-03-31T18:56:32;13.40;76.90
46562;DHT22;32289;42.688;23.330;2023-03-31T19:00:13;13.20;77.40
46562;DHT22;32289;42.688;23.330;2023-03-31T19:03:54;13.20;77.10
46562;DHT22;32289;42.688;23.330;2023-03-31T19:07:35;13.10;77.40
46562;DHT22;32289;42.688;23.330;2023-03-31T19:11:16;13.20;77.80
46562;DHT22;32289;42.688;23.330;2023-03-31T19:14:56;13.20;77.70
46562;DHT22;32289;42.688;23.330;2023-03-31T19:18:38;13.20;78.00
46562;DHT22;32289;42.688;23.330;2023-03-31T19:22:19;13.20;80.30
46562;DHT22;32289;42.688;23.330;2023-03-31T19:26:00;13.20;79.90
46562;DHT22;32289;42.688;23.330;2023-03-31T19:29:42;13.00;80.20
46562;DHT22;32289;42.688;23.330;2023-03-31T19:33:24;13.10;81.30
46562;DHT22;32289;42.688;23.330;2023-03-31T19:37:04;13.00;81.90
46562;DHT22;32289;42.688;23.330;2023-03-31T19:40:47;12.80;81.90
46562;DHT22;32289;42.688;23.330;2023-03-31T19:44:28;12.80;82.90
46562;DHT22;32289;42.688;23.330;2023-03-31T19:48:09;12.70;83.70
46562;DHT22;32289;42.688;23.330;2023-03-31T19:51:49;12.70;85.20
46562;DHT22;32289;42.688;23.330;2023-03-31T19:55:31;12.60;84.70
46562;DHT22;32289;42.688;23.330;2023-03-31T19:59:14;12.50;86.10
46562;DHT22;32289;42.688;23.330;2023-03-31T20:02:55;12.50;87.00
46562;DHT22;32289;42.688;23.330;2023-03-31T20:06:36;12.40;86.50
46562;DHT22;32289;42.688;23.330;2023-03-31T20:10:19;12.30;88.10
46562;DHT22;32289;42.688;23.330;2023-03-31T20:14:01;12.20;89.40
46562;DHT22;32289;42.688;23.330;2023-03-31T20:17:42;12.10;89.20
46562;DHT22;32289;42.688;23.330;2023-03-31T20:21:26;12.20;89.60
46562;DHT22;32289;42.688;23.330;2023-03-31T20:25:07;12.10;90.10
46562;DHT22;32289;42.688;23.330;2023-03-31T20:28:48;12.00;89.90
46562;DHT22;32289;42.688;23.330;2023-03-31T20:32:29;12.00;90.20
46562;DHT22;32289;42.688;23.330;2023-03-31T20:36:12;12.00;90.60
46562;DHT22;32289;42.688;23.330;2023-03-31T20:39:53;12.00;90.40
46562;DHT22;32289;42.688;23.330;2023-03-31T20:43:35;11.80;87.40
46562;DHT22;32289;42.688;23.330;2023-03-31T20:47:16;11.80;87.60
46562;DHT22;32289;42.688;23.330;2023-03-31T20:50:57;11.80;90.00
46562;DHT22;32289;42.688;23.330;2023-03-31T20:54:37;11.60;89.90
46562;DHT22;32289;42.688;23.330;2023-03-31T20:58:19;11.70;90.40
46562;DHT22;32289;42.688;23.330;2023-03-31T21:02:00;11.60;90.30
46562;DHT22;32289;42.688;23.330;2023-03-31T21:05:44;11.70;90.30
46562;DHT22;32289;42.688;23.330;2023-03-31T21:09:24;11.70;91.00
46562;DHT22;32289;42.688;23.330;2023-03-31T21:13:05;11.60;91.30
46562;DHT22;32289;42.688;23.330;2023-03-31T21:16:46;11.50;92.20
46562;DHT22;32289;42.688;23.330;2023-03-31T21:20:27;11.40;91.90
46562;DHT22;32289;42.688;23.330;2023-03-31T21:24:10;11.20;92.60
46562;DHT22;32289;42.688;23.330;2023-03-31T21:27:51;11.20;93.30
46562;DHT22;32289;42.688;23.330;2023-03-31T21:31:32;11.20;93.30
46562;DHT22;32289;42.688;23.330;2023-03-31T21:35:13;11.20;93.40
46562;DHT22;32289;42.688;23.330;2023-03-31T21:38:54;11.10;93.30
46562;DHT22;32289;42.688;23.330;2023-03-31T21:42:36;10.90;94.00
46562;DHT22;32289;42.688;23.330;2023-03-31T21:46:21;10.90;94.60
46562;DHT22;32289;42.688;23.330;2023-03-31T21:50:03;10.90;95.30
46562;DHT22;32289;42.688;23.330;2023-03-31T21:53:44;11.00;95.60
46562;DHT22;32289;42.688;23.330;2023-03-31T21:57:25;11.10;95.40
46562;DHT22;32289;42.688;23.330;2023-03-31T22:01:06;11.20;94.50
46562;DHT22;32289;42.688;23.330;2023-03-31T22:04:47;11.30;94.00
46562;DHT22;32289;42.688;23.330;2023-03-31T22:08:28;11.40;93.50
46562;DHT22;32289;42.688;23.330;2023-03-31T22:12:11;11.30;93.80
46562;DHT22;32289;42.688;23.330;2023-03-31T22:15:52;11.30;94.90
46562;DHT22;32289;42.688;23.330;2023-03-31T22:19:33;11.20;94.90
46562;DHT22;32289;42.688;23.330;2023-03-31T22:23:13;11.20;94.50
46562;DHT22;32289;42.688;23.330;2023-03-31T22:26:54;11.20;95.60
46562;DHT22;32289;42.688;23.330;2023-03-31T22:30:35;11.20;96.30
46562;DHT22;32289;42.688;23.330;2023-03-31T22:34:16;11.20;95.40
46562;DHT22;32289;42.688;23.330;2023-03-31T22:37:58;11.20;95.80
46562;DHT22;32289;42.688;23.330;2023-03-31T22:41:41;11.30;94.30
46562;DHT22;32289;42.688;23.330;2023-03-31T22:45:21;11.30;94.30
46562;DHT22;32289;42.688;23.330;2023-03-31T22:49:02;11.20;94.90
46562;DHT22;32289;42.688;23.330;2023-03-31T22:52:43;11.30;94.20
46562;DHT22;32289;42.688;23.330;2023-03-31T22:56:25;11.30;94.80
46562;DHT22;32289;42.688;23.330;2023-03-31T23:00:07;11.40;94.90
46562;DHT22;32289;42.688;23.330;2023-03-31T23:03:49;11.30;94.70
46562;DHT22;32289;42.688;23.330;2023-03-31T23:07:29;11.30;94.70
46562;DHT22;32289;42.688;23.330;2023-03-31T23:11:11;11.40;94.30
46562;DHT22;32289;42.688;23.330;2023-03-31T23:14:52;11.50;94.00
46562;DHT22;32289;42.688;23.330;2023-03-31T23:18:34;11.60;94.20
46562;DHT22;32289;42.688;23.330;2023-03-31T23:22:15;11.60;93.50
46562;DHT22;32289;42.688;23.330;2023-03-31T23:25:59;11.60;94.20
46562;DHT22;32289;42.688;23.330;2023-03-31T23:29:40;11.60;94.10
46562;DHT22;32289;42.688;23.330;2023-03-31T23:33:26;11.40;95.30
46562;DHT22;32289;42.688;23.330;2023-03-31T23:37:09;11.10;96.50
46562;DHT22;32289;42.688;23.330;2023-03-31T23:40:50;11.00;96.50
46562;DHT22;32289;42.688;23.330;2023-03-31T23:44:31;11.00;96.60
46562;DHT22;32289;42.688;23.330;2023-03-31T23:48:12;11.10;96.40
46562;DHT22;32289;42.688;23.330;2023-03-31T23:51:52;11.00;97.00
46562;DHT22;32289;42.688;23.330;2023-03-31T23:55:33;10.90;97.10
46562;DHT22;32289;42.688;23.330;2023-03-31T23:59:15;10.80;97.40
